sensor_id;sensor_type;location;lat;lon;timestamp;P1;durP1;ratioP1;P2;durP2;ratioP2
37305;SDS011;23193;42.656;21.170;2022-12-15T00:56:12;24.23;;;10.50;;
37305;SDS011;23193;42.656;21.170;2022-12-15T00:58:57;27.15;;;10.60;;
37305;SDS011;23193;42.656;21.170;2022-12-15T01:01:42;28.38;;;9.88;;
37305;SDS011;23193;42.656;21.170;2022-12-15T01:04:27;20.50;;;9.93;;
37305;SDS011;23193;42.656;21.170;2022-12-15T01:07:12;22.33;;;13.95;;
37305;SDS011;23193;42.656;21.170;2022-12-15T01:09:57;33.45;;;18.63;;
37305;SDS011;23193;42.656;21.170;2022-12-15T01:12:42;31.85;;;17.20;;
37305;SDS011;23193;42.656;21.170;2022-12-15T01:15:27;44.72;;;24.27;;
37305;SDS011;23193;42.656;21.170;2022-12-15T01:18:12;36.55;;;21.63;;
37305;SDS011;23193;42.656;21.170;2022-12-15T01:21:01;35.97;;;22.42;;
37305;SDS011;23193;42.656;21.170;2022-12-15T01:23:29;35.58;;;24.73;;
37305;SDS011;23193;42.656;21.170;2022-12-15T01:25:55;30.35;;;21.13;;
37305;SDS011;23193;42.656;21.170;2022-12-15T01:28:22;36.65;;;20.77;;
37305;SDS011;23193;42.656;21.170;2022-12-15T01:30:48;34.00;;;22.70;;
37305;SDS011;23193;42.656;21.170;2022-12-15T01:33:15;35.05;;;24.05;;
37305;SDS011;23193;42.656;21.170;2022-12-15T01:35:41;34.00;;;25.13;;
37305;SDS011;23193;42.656;21.170;2022-12-15T01:38:07;37.25;;;22.63;;
37305;SDS011;23193;42.656;21.170;2022-12-15T01:40:34;34.42;;;22.73;;
37305;SDS011;23193;42.656;21.170;2022-12-15T01:43:20;35.00;;;23.10;;
37305;SDS011;23193;42.656;21.170;2022-12-15T01:45:49;39.75;;;26.80;;
37305;SDS011;23193;42.656;21.170;2022-12-15T01:48:19;30.77;;;22.52;;
37305;SDS011;23193;42.656;21.170;2022-12-15T01:50:52;33.50;;;22.70;;
37305;SDS011;23193;42.656;21.170;2022-12-15T01:53:19;36.83;;;24.48;;
37305;SDS011;23193;42.656;21.170;2022-12-15T01:55:45;34.78;;;24.13;;
37305;SDS011;23193;42.656;21.170;2022-12-15T01:58:12;38.22;;;25.20;;
37305;SDS011;23193;42.656;21.170;2022-12-15T02:00:41;37.17;;;23.83;;
37305;SDS011;23193;42.656;21.170;2022-12-15T02:03:07;63.33;;;41.25;;
37305;SDS011;23193;42.656;21.170;2022-12-15T02:05:34;37.35;;;24.95;;
37305;SDS011;23193;42.656;21.170;2022-12-15T02:08:00;33.42;;;22.95;;
37305;SDS011;23193;42.656;21.170;2022-12-15T02:10:33;34.60;;;23.55;;
37305;SDS011;23193;42.656;21.170;2022-12-15T02:13:10;35.72;;;24.52;;
37305;SDS011;23193;42.656;21.170;2022-12-15T02:18:13;39.58;;;25.55;;
37305;SDS011;23193;42.656;21.170;2022-12-15T02:28:37;67.75;;;40.58;;
37305;SDS011;23193;42.656;21.170;2022-12-15T02:31:12;65.57;;;38.40;;
37305;SDS011;23193;42.656;21.170;2022-12-15T02:36:45;54.58;;;29.73;;
37305;SDS011;23193;42.656;21.170;2022-12-15T02:39:12;58.53;;;32.10;;
37305;SDS011;23193;42.656;21.170;2022-12-15T02:41:40;47.33;;;27.75;;
37305;SDS011;23193;42.656;21.170;2022-12-15T02:44:14;386.90;;;249.35;;
37305;SDS011;23193;42.656;21.170;2022-12-15T02:49:33;50.13;;;30.55;;
37305;SDS011;23193;42.656;21.170;2022-12-15T03:00:10;87.68;;;45.53;;
37305;SDS011;23193;42.656;21.170;2022-12-15T03:02:20;65.85;;;33.47;;
37305;SDS011;23193;42.656;21.170;2022-12-15T03:04:47;52.97;;;31.80;;
37305;SDS011;23193;42.656;21.170;2022-12-15T03:07:14;91.70;;;50.75;;
37305;SDS011;23193;42.656;21.170;2022-12-15T03:09:40;48.55;;;30.58;;
37305;SDS011;23193;42.656;21.170;2022-12-15T03:12:06;42.17;;;27.70;;
37305;SDS011;23193;42.656;21.170;2022-12-15T03:14:32;44.28;;;29.15;;
37305;SDS011;23193;42.656;21.170;2022-12-15T03:16:58;45.58;;;26.73;;
37305;SDS011;23193;42.656;21.170;2022-12-15T03:19:24;40.80;;;26.33;;
37305;SDS011;23193;42.656;21.170;2022-12-15T03:21:51;46.00;;;26.02;;
37305;SDS011;23193;42.656;21.170;2022-12-15T03:24:17;47.47;;;29.88;;
37305;SDS011;23193;42.656;21.170;2022-12-15T03:26:43;48.38;;;28.85;;
37305;SDS011;23193;42.656;21.170;2022-12-15T03:29:13;50.88;;;30.10;;
37305;SDS011;23193;42.656;21.170;2022-12-15T03:31:40;105.90;;;65.20;;
37305;SDS011;23193;42.656;21.170;2022-12-15T03:34:06;85.75;;;52.40;;
37305;SDS011;23193;42.656;21.170;2022-12-15T03:36:32;55.67;;;33.85;;
37305;SDS011;23193;42.656;21.170;2022-12-15T03:38:58;132.60;;;77.47;;
37305;SDS011;23193;42.656;21.170;2022-12-15T03:41:24;153.95;;;86.72;;
37305;SDS011;23193;42.656;21.170;2022-12-15T03:43:50;139.00;;;79.95;;
37305;SDS011;23193;42.656;21.170;2022-12-15T03:46:16;255.90;;;136.40;;
37305;SDS011;23193;42.656;21.170;2022-12-15T03:48:42;90.32;;;53.78;;
37305;SDS011;23193;42.656;21.170;2022-12-15T03:51:08;88.32;;;52.42;;
37305;SDS011;23193;42.656;21.170;2022-12-15T03:53:34;95.22;;;55.85;;
37305;SDS011;23193;42.656;21.170;2022-12-15T03:56:00;133.15;;;76.68;;
37305;SDS011;23193;42.656;21.170;2022-12-15T03:58:26;91.70;;;54.88;;
37305;SDS011;23193;42.656;21.170;2022-12-15T04:00:52;82.78;;;47.13;;
37305;SDS011;23193;42.656;21.170;2022-12-15T04:03:18;77.05;;;44.53;;
37305;SDS011;23193;42.656;21.170;2022-12-15T04:05:45;74.75;;;42.47;;
37305;SDS011;23193;42.656;21.170;2022-12-15T04:08:11;66.93;;;37.92;;
37305;SDS011;23193;42.656;21.170;2022-12-15T04:10:37;65.72;;;38.42;;
37305;SDS011;23193;42.656;21.170;2022-12-15T04:13:04;52.63;;;32.45;;
37305;SDS011;23193;42.656;21.170;2022-12-15T04:15:31;62.55;;;36.78;;
37305;SDS011;23193;42.656;21.170;2022-12-15T04:17:57;86.38;;;46.85;;
37305;SDS011;23193;42.656;21.170;2022-12-15T04:20:23;70.53;;;39.15;;
37305;SDS011;23193;42.656;21.170;2022-12-15T04:22:50;149.70;;;70.32;;
37305;SDS011;23193;42.656;21.170;2022-12-15T04:25:17;566.00;;;295.38;;
37305;SDS011;23193;42.656;21.170;2022-12-15T04:28:02;342.58;;;165.40;;
37305;SDS011;23193;42.656;21.170;2022-12-15T04:30:54;358.40;;;158.68;;
37305;SDS011;23193;42.656;21.170;2022-12-15T04:33:41;196.45;;;93.53;;
37305;SDS011;23193;42.656;21.170;2022-12-15T04:36:27;189.45;;;96.68;;
37305;SDS011;23193;42.656;21.170;2022-12-15T04:39:12;183.75;;;92.00;;
37305;SDS011;23193;42.656;21.170;2022-12-15T04:41:57;140.43;;;60.75;;
37305;SDS011;23193;42.656;21.170;2022-12-15T04:44:43;174.77;;;75.30;;
37305;SDS011;23193;42.656;21.170;2022-12-15T04:47:28;469.48;;;234.32;;
37305;SDS011;23193;42.656;21.170;2022-12-15T04:50:13;352.88;;;182.15;;
37305;SDS011;23193;42.656;21.170;2022-12-15T04:53:08;179.18;;;72.90;;
37305;SDS011;23193;42.656;21.170;2022-12-15T04:55:53;161.25;;;67.07;;
37305;SDS011;23193;42.656;21.170;2022-12-15T04:58:38;176.23;;;73.93;;
37305;SDS011;23193;42.656;21.170;2022-12-15T05:01:25;186.88;;;74.68;;
37305;SDS011;23193;42.656;21.170;2022-12-15T05:04:10;157.95;;;65.57;;
37305;SDS011;23193;42.656;21.170;2022-12-15T05:06:55;150.43;;;55.45;;
37305;SDS011;23193;42.656;21.170;2022-12-15T05:09:40;152.43;;;60.78;;
37305;SDS011;23193;42.656;21.170;2022-12-15T05:12:25;139.55;;;55.28;;
37305;SDS011;23193;42.656;21.170;2022-12-15T05:15:09;137.88;;;54.45;;
37305;SDS011;23193;42.656;21.170;2022-12-15T05:17:54;138.90;;;56.70;;
37305;SDS011;23193;42.656;21.170;2022-12-15T05:20:38;137.70;;;57.42;;
37305;SDS011;23193;42.656;21.170;2022-12-15T05:23:23;134.07;;;57.47;;
37305;SDS011;23193;42.656;21.170;2022-12-15T05:26:08;133.80;;;54.92;;
37305;SDS011;23193;42.656;21.170;2022-12-15T05:28:52;122.38;;;52.78;;
37305;SDS011;23193;42.656;21.170;2022-12-15T05:31:37;108.40;;;46.80;;
37305;SDS011;23193;42.656;21.170;2022-12-15T05:34:16;131.48;;;57.03;;
37305;SDS011;23193;42.656;21.170;2022-12-15T05:36:42;134.02;;;59.72;;
37305;SDS011;23193;42.656;21.170;2022-12-15T05:39:08;145.77;;;62.22;;
37305;SDS011;23193;42.656;21.170;2022-12-15T05:41:34;163.07;;;66.70;;
37305;SDS011;23193;42.656;21.170;2022-12-15T05:44:00;147.38;;;62.60;;
37305;SDS011;23193;42.656;21.170;2022-12-15T05:46:26;143.52;;;60.53;;
37305;SDS011;23193;42.656;21.170;2022-12-15T05:48:52;135.27;;;59.75;;
37305;SDS011;23193;42.656;21.170;2022-12-15T05:51:18;141.63;;;60.10;;
37305;SDS011;23193;42.656;21.170;2022-12-15T05:53:44;116.57;;;49.80;;
37305;SDS011;23193;42.656;21.170;2022-12-15T05:56:11;133.35;;;56.17;;
37305;SDS011;23193;42.656;21.170;2022-12-15T05:58:38;148.52;;;65.68;;
37305;SDS011;23193;42.656;21.170;2022-12-15T06:01:04;124.53;;;57.40;;
37305;SDS011;23193;42.656;21.170;2022-12-15T06:03:31;140.38;;;60.70;;
37305;SDS011;23193;42.656;21.170;2022-12-15T06:05:57;127.60;;;56.13;;
37305;SDS011;23193;42.656;21.170;2022-12-15T06:08:25;123.75;;;55.90;;
37305;SDS011;23193;42.656;21.170;2022-12-15T06:10:51;104.82;;;48.28;;
37305;SDS011;23193;42.656;21.170;2022-12-15T06:13:18;103.03;;;49.00;;
37305;SDS011;23193;42.656;21.170;2022-12-15T06:15:53;90.65;;;44.05;;
37305;SDS011;23193;42.656;21.170;2022-12-15T06:18:19;98.90;;;46.50;;
37305;SDS011;23193;42.656;21.170;2022-12-15T06:20:45;111.82;;;49.05;;
37305;SDS011;23193;42.656;21.170;2022-12-15T06:23:11;105.18;;;50.55;;
37305;SDS011;23193;42.656;21.170;2022-12-15T06:25:37;99.40;;;47.65;;
37305;SDS011;23193;42.656;21.170;2022-12-15T06:28:03;92.25;;;42.95;;
37305;SDS011;23193;42.656;21.170;2022-12-15T06:30:29;85.80;;;41.60;;
37305;SDS011;23193;42.656;21.170;2022-12-15T06:32:55;73.50;;;38.97;;
37305;SDS011;23193;42.656;21.170;2022-12-15T06:35:21;83.47;;;42.53;;
37305;SDS011;23193;42.656;21.170;2022-12-15T06:37:47;83.07;;;38.78;;
37305;SDS011;23193;42.656;21.170;2022-12-15T06:40:13;83.53;;;40.83;;
37305;SDS011;23193;42.656;21.170;2022-12-15T06:42:39;136.40;;;64.57;;
37305;SDS011;23193;42.656;21.170;2022-12-15T06:45:06;139.95;;;64.72;;
37305;SDS011;23193;42.656;21.170;2022-12-15T06:47:32;123.43;;;58.00;;
37305;SDS011;23193;42.656;21.170;2022-12-15T06:49:58;115.30;;;56.47;;
37305;SDS011;23193;42.656;21.170;2022-12-15T06:52:24;99.13;;;49.20;;
37305;SDS011;23193;42.656;21.170;2022-12-15T06:54:50;97.05;;;44.53;;
37305;SDS011;23193;42.656;21.170;2022-12-15T06:57:16;104.07;;;50.50;;
37305;SDS011;23193;42.656;21.170;2022-12-15T06:59:42;86.82;;;43.55;;
37305;SDS011;23193;42.656;21.170;2022-12-15T07:02:13;86.32;;;43.80;;
37305;SDS011;23193;42.656;21.170;2022-12-15T07:04:40;90.30;;;44.42;;
37305;SDS011;23193;42.656;21.170;2022-12-15T07:07:07;94.80;;;42.90;;
37305;SDS011;23193;42.656;21.170;2022-12-15T07:09:34;90.75;;;44.13;;
37305;SDS011;23193;42.656;21.170;2022-12-15T07:12:00;91.43;;;47.42;;
37305;SDS011;23193;42.656;21.170;2022-12-15T07:14:26;107.10;;;51.60;;
37305;SDS011;23193;42.656;21.170;2022-12-15T07:16:52;134.02;;;67.40;;
37305;SDS011;23193;42.656;21.170;2022-12-15T07:19:18;153.95;;;76.00;;
37305;SDS011;23193;42.656;21.170;2022-12-15T07:21:45;144.70;;;75.53;;
37305;SDS011;23193;42.656;21.170;2022-12-15T07:24:11;162.40;;;77.43;;
37305;SDS011;23193;42.656;21.170;2022-12-15T07:26:38;179.32;;;81.22;;
37305;SDS011;23193;42.656;21.170;2022-12-15T07:29:04;166.35;;;78.53;;
37305;SDS011;23193;42.656;21.170;2022-12-15T07:31:30;178.63;;;81.03;;
37305;SDS011;23193;42.656;21.170;2022-12-15T07:33:59;170.27;;;77.43;;
37305;SDS011;23193;42.656;21.170;2022-12-15T07:36:25;151.52;;;72.65;;
37305;SDS011;23193;42.656;21.170;2022-12-15T07:38:55;146.45;;;75.00;;
37305;SDS011;23193;42.656;21.170;2022-12-15T07:41:22;170.17;;;84.13;;
37305;SDS011;23193;42.656;21.170;2022-12-15T07:43:48;174.38;;;84.90;;
37305;SDS011;23193;42.656;21.170;2022-12-15T07:46:14;137.70;;;69.90;;
37305;SDS011;23193;42.656;21.170;2022-12-15T07:48:40;153.65;;;76.13;;
37305;SDS011;23193;42.656;21.170;2022-12-15T07:51:07;121.45;;;62.33;;
37305;SDS011;23193;42.656;21.170;2022-12-15T07:53:33;104.13;;;53.40;;
37305;SDS011;23193;42.656;21.170;2022-12-15T07:55:59;104.22;;;53.42;;
37305;SDS011;23193;42.656;21.170;2022-12-15T07:58:26;87.70;;;47.63;;
37305;SDS011;23193;42.656;21.170;2022-12-15T08:01:00;93.07;;;47.47;;
37305;SDS011;23193;42.656;21.170;2022-12-15T08:03:27;110.30;;;52.15;;
37305;SDS011;23193;42.656;21.170;2022-12-15T08:05:53;119.07;;;57.80;;
37305;SDS011;23193;42.656;21.170;2022-12-15T08:08:19;121.75;;;60.55;;
37305;SDS011;23193;42.656;21.170;2022-12-15T08:10:46;136.77;;;60.45;;
37305;SDS011;23193;42.656;21.170;2022-12-15T08:13:13;137.60;;;59.78;;
37305;SDS011;23193;42.656;21.170;2022-12-15T08:15:39;155.20;;;66.65;;
37305;SDS011;23193;42.656;21.170;2022-12-15T08:18:05;142.50;;;61.85;;
37305;SDS011;23193;42.656;21.170;2022-12-15T08:20:33;151.50;;;73.00;;
37305;SDS011;23193;42.656;21.170;2022-12-15T08:22:59;141.73;;;65.72;;
37305;SDS011;23193;42.656;21.170;2022-12-15T08:25:26;166.73;;;90.15;;
37305;SDS011;23193;42.656;21.170;2022-12-15T08:27:55;174.60;;;96.68;;
37305;SDS011;23193;42.656;21.170;2022-12-15T08:30:22;123.53;;;61.60;;
37305;SDS011;23193;42.656;21.170;2022-12-15T08:32:48;108.93;;;56.42;;
37305;SDS011;23193;42.656;21.170;2022-12-15T08:35:15;111.32;;;54.78;;
37305;SDS011;23193;42.656;21.170;2022-12-15T08:37:41;90.63;;;51.22;;
37305;SDS011;23193;42.656;21.170;2022-12-15T08:40:07;89.90;;;50.53;;
37305;SDS011;23193;42.656;21.170;2022-12-15T08:42:34;104.30;;;58.10;;
37305;SDS011;23193;42.656;21.170;2022-12-15T08:45:00;82.00;;;42.92;;
37305;SDS011;23193;42.656;21.170;2022-12-15T08:47:26;55.85;;;32.10;;
37305;SDS011;23193;42.656;21.170;2022-12-15T08:49:52;80.15;;;46.95;;
37305;SDS011;23193;42.656;21.170;2022-12-15T08:52:20;74.75;;;41.72;;
37305;SDS011;23193;42.656;21.170;2022-12-15T08:54:46;101.35;;;57.33;;
37305;SDS011;23193;42.656;21.170;2022-12-15T08:57:12;74.65;;;44.97;;
37305;SDS011;23193;42.656;21.170;2022-12-15T08:59:38;57.60;;;33.15;;
37305;SDS011;23193;42.656;21.170;2022-12-15T09:02:04;58.70;;;36.58;;
37305;SDS011;23193;42.656;21.170;2022-12-15T09:04:31;50.70;;;31.65;;
37305;SDS011;23193;42.656;21.170;2022-12-15T09:06:57;51.95;;;33.00;;
37305;SDS011;23193;42.656;21.170;2022-12-15T09:09:23;46.65;;;30.70;;
37305;SDS011;23193;42.656;21.170;2022-12-15T09:11:49;62.60;;;34.88;;
37305;SDS011;23193;42.656;21.170;2022-12-15T09:14:16;49.15;;;30.55;;
37305;SDS011;23193;42.656;21.170;2022-12-15T09:16:42;49.00;;;31.85;;
37305;SDS011;23193;42.656;21.170;2022-12-15T09:19:08;56.55;;;34.10;;
37305;SDS011;23193;42.656;21.170;2022-12-15T09:21:35;55.83;;;35.13;;
37305;SDS011;23193;42.656;21.170;2022-12-15T09:24:01;54.00;;;34.05;;
37305;SDS011;23193;42.656;21.170;2022-12-15T09:26:29;57.28;;;36.83;;
37305;SDS011;23193;42.656;21.170;2022-12-15T09:28:55;58.08;;;36.28;;
37305;SDS011;23193;42.656;21.170;2022-12-15T09:31:22;51.28;;;33.63;;
37305;SDS011;23193;42.656;21.170;2022-12-15T09:33:49;61.65;;;38.25;;
37305;SDS011;23193;42.656;21.170;2022-12-15T09:36:16;53.15;;;35.00;;
37305;SDS011;23193;42.656;21.170;2022-12-15T09:38:42;56.33;;;36.95;;
37305;SDS011;23193;42.656;21.170;2022-12-15T09:44:12;44.80;;;28.83;;
37305;SDS011;23193;42.656;21.170;2022-12-15T09:51:40;76.47;;;48.80;;
37305;SDS011;23193;42.656;21.170;2022-12-15T09:54:09;49.67;;;32.38;;
37305;SDS011;23193;42.656;21.170;2022-12-15T09:56:40;44.83;;;30.15;;
37305;SDS011;23193;42.656;21.170;2022-12-15T09:59:19;46.75;;;31.45;;
37305;SDS011;23193;42.656;21.170;2022-12-15T10:04:36;49.05;;;34.15;;
37305;SDS011;23193;42.656;21.170;2022-12-15T10:07:12;51.00;;;32.47;;
37305;SDS011;23193;42.656;21.170;2022-12-15T10:09:39;50.03;;;34.55;;
37305;SDS011;23193;42.656;21.170;2022-12-15T10:14:38;149.73;;;80.85;;
37305;SDS011;23193;42.656;21.170;2022-12-15T10:19:40;51.75;;;36.78;;
37305;SDS011;23193;42.656;21.170;2022-12-15T10:22:11;54.80;;;36.67;;
37305;SDS011;23193;42.656;21.170;2022-12-15T10:29:41;48.28;;;34.85;;
37305;SDS011;23193;42.656;21.170;2022-12-15T10:34:40;39.47;;;27.92;;
37305;SDS011;23193;42.656;21.170;2022-12-15T10:37:11;76.57;;;51.78;;
37305;SDS011;23193;42.656;21.170;2022-12-15T10:42:12;92.50;;;49.78;;
37305;SDS011;23193;42.656;21.170;2022-12-15T10:44:40;42.83;;;29.52;;
37305;SDS011;23193;42.656;21.170;2022-12-15T10:49:51;42.92;;;30.10;;
37305;SDS011;23193;42.656;21.170;2022-12-15T10:54:45;36.50;;;25.65;;
37305;SDS011;23193;42.656;21.170;2022-12-15T10:57:16;33.00;;;23.40;;
37305;SDS011;23193;42.656;21.170;2022-12-15T10:59:43;40.53;;;26.52;;
37305;SDS011;23193;42.656;21.170;2022-12-15T11:04:54;38.03;;;26.13;;
37305;SDS011;23193;42.656;21.170;2022-12-15T11:07:21;38.78;;;27.58;;
37305;SDS011;23193;42.656;21.170;2022-12-15T11:09:47;43.55;;;27.55;;
37305;SDS011;23193;42.656;21.170;2022-12-15T11:12:17;41.80;;;27.98;;
37305;SDS011;23193;42.656;21.170;2022-12-15T11:15:27;50.40;;;30.98;;
37305;SDS011;23193;42.656;21.170;2022-12-15T11:20:19;60.65;;;35.55;;
37305;SDS011;23193;42.656;21.170;2022-12-15T11:22:54;44.75;;;30.52;;
37305;SDS011;23193;42.656;21.170;2022-12-15T11:27:53;41.15;;;29.27;;
37305;SDS011;23193;42.656;21.170;2022-12-15T11:30:23;40.67;;;28.83;;
37305;SDS011;23193;42.656;21.170;2022-12-15T11:32:51;121.25;;;73.32;;
37305;SDS011;23193;42.656;21.170;2022-12-15T11:35:24;262.70;;;155.88;;
37305;SDS011;23193;42.656;21.170;2022-12-15T11:37:57;115.50;;;68.88;;
37305;SDS011;23193;42.656;21.170;2022-12-15T11:40:37;156.10;;;98.30;;
37305;SDS011;23193;42.656;21.170;2022-12-15T11:48:14;35.88;;;22.52;;
37305;SDS011;23193;42.656;21.170;2022-12-15T12:03:57;34.70;;;24.75;;
37305;SDS011;23193;42.656;21.170;2022-12-15T12:06:33;36.88;;;26.70;;
37305;SDS011;23193;42.656;21.170;2022-12-15T12:09:18;34.70;;;24.48;;
37305;SDS011;23193;42.656;21.170;2022-12-15T12:11:55;37.90;;;26.13;;
37305;SDS011;23193;42.656;21.170;2022-12-15T12:14:27;42.25;;;27.02;;
37305;SDS011;23193;42.656;21.170;2022-12-15T12:17:05;36.05;;;23.38;;
37305;SDS011;23193;42.656;21.170;2022-12-15T12:19:51;34.90;;;24.63;;
37305;SDS011;23193;42.656;21.170;2022-12-15T12:24:49;74.25;;;49.00;;
37305;SDS011;23193;42.656;21.170;2022-12-15T12:29:48;26.70;;;20.63;;
37305;SDS011;23193;42.656;21.170;2022-12-15T12:39:57;48.25;;;32.45;;
37305;SDS011;23193;42.656;21.170;2022-12-15T12:42:30;47.70;;;31.05;;
37305;SDS011;23193;42.656;21.170;2022-12-15T12:45:00;27.48;;;20.75;;
37305;SDS011;23193;42.656;21.170;2022-12-15T12:47:30;198.45;;;139.70;;
37305;SDS011;23193;42.656;21.170;2022-12-15T12:50:00;45.50;;;30.85;;
37305;SDS011;23193;42.656;21.170;2022-12-15T12:52:34;26.33;;;19.88;;
37305;SDS011;23193;42.656;21.170;2022-12-15T12:55:19;42.55;;;24.17;;
37305;SDS011;23193;42.656;21.170;2022-12-15T12:57:47;46.67;;;30.73;;
37305;SDS011;23193;42.656;21.170;2022-12-15T13:00:15;31.55;;;22.85;;
37305;SDS011;23193;42.656;21.170;2022-12-15T13:02:45;44.63;;;26.67;;
37305;SDS011;23193;42.656;21.170;2022-12-15T13:10:35;29.92;;;21.23;;
37305;SDS011;23193;42.656;21.170;2022-12-15T13:15:49;56.08;;;33.88;;
37305;SDS011;23193;42.656;21.170;2022-12-15T13:18:23;52.92;;;30.25;;
37305;SDS011;23193;42.656;21.170;2022-12-15T13:20:54;39.92;;;26.98;;
37305;SDS011;23193;42.656;21.170;2022-12-15T13:41:40;44.83;;;31.73;;
37305;SDS011;23193;42.656;21.170;2022-12-15T13:44:19;61.43;;;40.07;;
37305;SDS011;23193;42.656;21.170;2022-12-15T13:46:50;64.50;;;43.33;;
37305;SDS011;23193;42.656;21.170;2022-12-15T13:49:36;55.80;;;37.03;;
37305;SDS011;23193;42.656;21.170;2022-12-15T13:52:18;58.25;;;37.78;;
37305;SDS011;23193;42.656;21.170;2022-12-15T13:55:21;51.40;;;33.33;;
37305;SDS011;23193;42.656;21.170;2022-12-15T13:57:44;53.53;;;32.90;;
37305;SDS011;23193;42.656;21.170;2022-12-15T14:00:14;45.30;;;31.15;;
37305;SDS011;23193;42.656;21.170;2022-12-15T14:03:10;60.58;;;38.08;;
37305;SDS011;23193;42.656;21.170;2022-12-15T14:05:39;95.50;;;56.53;;
37305;SDS011;23193;42.656;21.170;2022-12-15T14:08:12;94.93;;;52.53;;
37305;SDS011;23193;42.656;21.170;2022-12-15T14:10:47;129.75;;;81.97;;
37305;SDS011;23193;42.656;21.170;2022-12-15T14:15:54;49.70;;;32.95;;
37305;SDS011;23193;42.656;21.170;2022-12-15T14:18:25;76.78;;;49.10;;
37305;SDS011;23193;42.656;21.170;2022-12-15T14:20:51;65.25;;;39.28;;
37305;SDS011;23193;42.656;21.170;2022-12-15T14:23:28;85.07;;;54.05;;
37305;SDS011;23193;42.656;21.170;2022-12-15T14:28:25;132.10;;;83.45;;
37305;SDS011;23193;42.656;21.170;2022-12-15T14:30:51;104.53;;;64.25;;
37305;SDS011;23193;42.656;21.170;2022-12-15T14:33:18;73.88;;;43.25;;
37305;SDS011;23193;42.656;21.170;2022-12-15T14:35:47;74.93;;;48.78;;
37305;SDS011;23193;42.656;21.170;2022-12-15T14:38:15;68.60;;;44.72;;
37305;SDS011;23193;42.656;21.170;2022-12-15T14:40:42;134.93;;;87.00;;
37305;SDS011;23193;42.656;21.170;2022-12-15T14:43:11;115.63;;;69.22;;
37305;SDS011;23193;42.656;21.170;2022-12-15T14:45:40;79.55;;;48.88;;
37305;SDS011;23193;42.656;21.170;2022-12-15T14:48:07;81.30;;;47.97;;
37305;SDS011;23193;42.656;21.170;2022-12-15T14:50:34;80.68;;;46.78;;
37305;SDS011;23193;42.656;21.170;2022-12-15T14:53:01;72.45;;;43.80;;
37305;SDS011;23193;42.656;21.170;2022-12-15T14:55:37;72.45;;;44.13;;
37305;SDS011;23193;42.656;21.170;2022-12-15T15:01:20;88.45;;;53.55;;
37305;SDS011;23193;42.656;21.170;2022-12-15T15:03:54;83.65;;;52.80;;
37305;SDS011;23193;42.656;21.170;2022-12-15T15:06:20;87.60;;;51.70;;
37305;SDS011;23193;42.656;21.170;2022-12-15T15:08:50;80.07;;;47.80;;
37305;SDS011;23193;42.656;21.170;2022-12-15T15:11:34;232.55;;;120.18;;
37305;SDS011;23193;42.656;21.170;2022-12-15T15:14:23;113.10;;;67.32;;
37305;SDS011;23193;42.656;21.170;2022-12-15T15:16:57;90.32;;;57.20;;
37305;SDS011;23193;42.656;21.170;2022-12-15T15:19:25;96.28;;;57.05;;
37305;SDS011;23193;42.656;21.170;2022-12-15T15:21:51;92.93;;;57.60;;
37305;SDS011;23193;42.656;21.170;2022-12-15T15:26:46;89.57;;;53.65;;
37305;SDS011;23193;42.656;21.170;2022-12-15T15:32:16;131.77;;;78.50;;
37305;SDS011;23193;42.656;21.170;2022-12-15T15:34:42;138.35;;;83.43;;
37305;SDS011;23193;42.656;21.170;2022-12-15T15:39:41;212.25;;;123.70;;
37305;SDS011;23193;42.656;21.170;2022-12-15T15:42:10;225.15;;;131.63;;
37305;SDS011;23193;42.656;21.170;2022-12-15T15:44:37;216.85;;;124.82;;
37305;SDS011;23193;42.656;21.170;2022-12-15T15:47:04;174.93;;;104.32;;
37305;SDS011;23193;42.656;21.170;2022-12-15T15:49:30;152.43;;;86.45;;
37305;SDS011;23193;42.656;21.170;2022-12-15T15:51:57;142.55;;;84.80;;
37305;SDS011;23193;42.656;21.170;2022-12-15T15:54:24;141.05;;;81.70;;
37305;SDS011;23193;42.656;21.170;2022-12-15T15:56:54;169.75;;;95.55;;
37305;SDS011;23193;42.656;21.170;2022-12-15T15:59:20;141.60;;;82.57;;
37305;SDS011;23193;42.656;21.170;2022-12-15T16:01:48;127.45;;;75.60;;
37305;SDS011;23193;42.656;21.170;2022-12-15T16:04:16;142.57;;;82.03;;
37305;SDS011;23193;42.656;21.170;2022-12-15T16:06:42;172.13;;;95.55;;
37305;SDS011;23193;42.656;21.170;2022-12-15T16:09:09;144.77;;;80.00;;
37305;SDS011;23193;42.656;21.170;2022-12-15T16:11:36;167.90;;;99.75;;
37305;SDS011;23193;42.656;21.170;2022-12-15T16:14:02;408.58;;;264.08;;
37305;SDS011;23193;42.656;21.170;2022-12-15T16:16:30;158.20;;;89.75;;
37305;SDS011;23193;42.656;21.170;2022-12-15T16:18:57;209.40;;;124.00;;
37305;SDS011;23193;42.656;21.170;2022-12-15T16:21:24;153.90;;;83.97;;
37305;SDS011;23193;42.656;21.170;2022-12-15T16:23:51;150.50;;;84.60;;
37305;SDS011;23193;42.656;21.170;2022-12-15T16:26:24;224.00;;;125.47;;
37305;SDS011;23193;42.656;21.170;2022-12-15T16:28:52;372.92;;;197.63;;
37305;SDS011;23193;42.656;21.170;2022-12-15T16:31:31;164.20;;;92.00;;
37305;SDS011;23193;42.656;21.170;2022-12-15T16:34:00;151.60;;;83.57;;
37305;SDS011;23193;42.656;21.170;2022-12-15T16:36:26;120.25;;;69.53;;
37305;SDS011;23193;42.656;21.170;2022-12-15T16:38:53;120.93;;;68.60;;
37305;SDS011;23193;42.656;21.170;2022-12-15T16:41:19;127.13;;;73.95;;
37305;SDS011;23193;42.656;21.170;2022-12-15T16:43:47;202.50;;;117.25;;
37305;SDS011;23193;42.656;21.170;2022-12-15T16:46:13;240.13;;;140.35;;
37305;SDS011;23193;42.656;21.170;2022-12-15T16:48:40;238.40;;;140.43;;
37305;SDS011;23193;42.656;21.170;2022-12-15T16:51:07;234.77;;;137.13;;
37305;SDS011;23193;42.656;21.170;2022-12-15T16:53:37;189.55;;;104.13;;
37305;SDS011;23193;42.656;21.170;2022-12-15T16:56:05;162.95;;;94.15;;
37305;SDS011;23193;42.656;21.170;2022-12-15T16:58:33;168.30;;;89.05;;
37305;SDS011;23193;42.656;21.170;2022-12-15T17:00:59;153.68;;;83.72;;
37305;SDS011;23193;42.656;21.170;2022-12-15T17:03:26;175.43;;;101.43;;
37305;SDS011;23193;42.656;21.170;2022-12-15T17:05:53;140.57;;;81.72;;
37305;SDS011;23193;42.656;21.170;2022-12-15T17:08:21;146.00;;;86.50;;
37305;SDS011;23193;42.656;21.170;2022-12-15T17:10:48;149.88;;;89.22;;
37305;SDS011;23193;42.656;21.170;2022-12-15T17:15:43;136.07;;;79.90;;
37305;SDS011;23193;42.656;21.170;2022-12-15T17:18:11;139.32;;;79.28;;
37305;SDS011;23193;42.656;21.170;2022-12-15T17:20:37;181.98;;;102.00;;
37305;SDS011;23193;42.656;21.170;2022-12-15T17:23:05;435.55;;;267.30;;
37305;SDS011;23193;42.656;21.170;2022-12-15T17:25:39;124.10;;;63.72;;
37305;SDS011;23193;42.656;21.170;2022-12-15T17:28:06;142.15;;;66.50;;
37305;SDS011;23193;42.656;21.170;2022-12-15T17:30:35;164.50;;;79.25;;
37305;SDS011;23193;42.656;21.170;2022-12-15T17:33:02;362.50;;;211.30;;
37305;SDS011;23193;42.656;21.170;2022-12-15T17:35:28;513.83;;;323.38;;